sensor_id;sensor_type;location;lat;lon;timestamp;pressure;altitude;pressure_sealevel;temperature;humidity
6668;BME280;3370;47.712;9.082;2023-03-22T00:01:31;96922.06;;;9.08;86.50
6668;BME280;3370;47.712;9.082;2023-03-22T00:04:16;96926.97;;;9.14;85.24
6668;BME280;3370;47.712;9.082;2023-03-22T00:07:02;96928.66;;;9.13;85.37
6668;BME280;3370;47.712;9.082;2023-03-22T00:09:48;96920.78;;;9.18;85.44
6668;BME280;3370;47.712;9.082;2023-03-22T00:12:34;96930.56;;;9.08;85.86
6668;BME280;3370;47.712;9.082;2023-03-22T00:15:20;96931.94;;;8.96;86.74
6668;BME280;3370;47.712;9.082;2023-03-22T00:18:08;96920.84;;;8.96;87.25
6668;BME280;3370;47.712;9.082;2023-03-22T00:20:58;96922.44;;;8.98;86.25
6668;BME280;3370;47.712;9.082;2023-03-22T00:23:45;96919.47;;;8.87;87.59
6668;BME280;3370;47.712;9.082;2023-03-22T00:26:31;96920.19;;;8.91;86.77
6668;BME280;3370;47.712;9.082;2023-03-22T00:29:17;96917.16;;;8.81;87.32
6668;BME280;3370;47.712;9.082;2023-03-22T00:32:04;96914.31;;;8.67;88.25
6668;BME280;3370;47.712;9.082;2023-03-22T00:34:50;96914.59;;;8.59;89.13
6668;BME280;3370;47.712;9.082;2023-03-22T00:37:37;96904.53;;;8.54;89.72
6668;BME280;3370;47.712;9.082;2023-03-22T00:40:23;96901.22;;;8.52;89.83
6668;BME280;3370;47.712;9.082;2023-03-22T00:43:09;96903.88;;;8.49;89.75
6668;BME280;3370;47.712;9.082;2023-03-22T00:45:56;96898.00;;;8.47;89.59
6668;BME280;3370;47.712;9.082;2023-03-22T00:48:42;96906.69;;;8.43;89.47
6668;BME280;3370;47.712;9.082;2023-03-22T00:51:28;96902.59;;;8.37;89.53
6668;BME280;3370;47.712;9.082;2023-03-22T00:54:14;96901.00;;;8.35;89.29
6668;BME280;3370;47.712;9.082;2023-03-22T00:57:02;96908.78;;;8.32;89.33
6668;BME280;3370;47.712;9.082;2023-03-22T00:59:48;96903.56;;;8.35;88.99
6668;BME280;3370;47.712;9.082;2023-03-22T01:02:34;96898.44;;;8.35;88.76
6668;BME280;3370;47.712;9.082;2023-03-22T01:05:20;96899.31;;;8.34;88.89
6668;BME280;3370;47.712;9.082;2023-03-22T01:08:06;96895.03;;;8.34;88.83
6668;BME280;3370;47.712;9.082;2023-03-22T01:10:55;96892.28;;;8.39;88.29
6668;BME280;3370;47.712;9.082;2023-03-22T01:13:41;96885.94;;;8.27;89.05
6668;BME280;3370;47.712;9.082;2023-03-22T01:16:27;96884.28;;;8.24;89.24
6668;BME280;3370;47.712;9.082;2023-03-22T01:19:13;96877.38;;;8.26;89.25
6668;BME280;3370;47.712;9.082;2023-03-22T01:22:00;96873.16;;;8.25;89.29
6668;BME280;3370;47.712;9.082;2023-03-22T01:24:48;96872.47;;;8.22;89.42
6668;BME280;3370;47.712;9.082;2023-03-22T01:27:35;96872.34;;;8.25;88.65
6668;BME280;3370;47.712;9.082;2023-03-22T01:30:21;96870.78;;;8.21;89.04
6668;BME280;3370;47.712;9.082;2023-03-22T01:33:09;96869.22;;;8.17;89.37
6668;BME280;3370;47.712;9.082;2023-03-22T01:35:55;96873.63;;;8.13;89.33
6668;BME280;3370;47.712;9.082;2023-03-22T01:38:42;96871.19;;;8.10;89.35
6668;BME280;3370;47.712;9.082;2023-03-22T01:41:28;96864.50;;;8.06;89.43
6668;BME280;3370;47.712;9.082;2023-03-22T01:44:17;96865.53;;;8.02;89.73
6668;BME280;3370;47.712;9.082;2023-03-22T01:47:04;96864.91;;;7.95;89.97
6668;BME280;3370;47.712;9.082;2023-03-22T01:49:50;96867.38;;;7.98;89.95
6668;BME280;3370;47.712;9.082;2023-03-22T01:52:36;96866.72;;;7.93;90.13
6668;BME280;3370;47.712;9.082;2023-03-22T01:55:24;96860.75;;;7.93;90.18
6668;BME280;3370;47.712;9.082;2023-03-22T01:58:11;96857.63;;;7.84;90.40
6668;BME280;3370;47.712;9.082;2023-03-22T02:01:01;96852.75;;;7.78;90.71
6668;BME280;3370;47.712;9.082;2023-03-22T02:04:38;96866.31;;;7.80;90.55
6668;BME280;3370;47.712;9.082;2023-03-22T02:07:19;96860.47;;;7.77;90.53
6668;BME280;3370;47.712;9.082;2023-03-22T02:10:15;96868.13;;;7.78;90.37
6668;BME280;3370;47.712;9.082;2023-03-22T02:16:37;96857.19;;;7.73;89.07
6668;BME280;3370;47.712;9.082;2023-03-22T02:29:48;96848.47;;;7.32;93.69
6668;BME280;3370;47.712;9.082;2023-03-22T02:39:42;96845.13;;;7.29;94.38
6668;BME280;3370;47.712;9.082;2023-03-22T02:48:41;96835.72;;;7.05;94.49
6668;BME280;3370;47.712;9.082;2023-03-22T02:52:14;96834.09;;;7.04;94.60
6668;BME280;3370;47.712;9.082;2023-03-22T02:58:15;96846.22;;;6.97;94.64
6668;BME280;3370;47.712;9.082;2023-03-22T03:01:07;96848.28;;;7.13;91.55
6668;BME280;3370;47.712;9.082;2023-03-22T03:04:04;96844.72;;;7.17;90.94
6668;BME280;3370;47.712;9.082;2023-03-22T03:07:00;96852.25;;;6.96;92.44
6668;BME280;3370;47.712;9.082;2023-03-22T03:09:49;96851.97;;;6.79;94.50
6668;BME280;3370;47.712;9.082;2023-03-22T03:12:36;96850.63;;;6.67;95.15
6668;BME280;3370;47.712;9.082;2023-03-22T03:15:23;96841.16;;;6.70;95.82
6668;BME280;3370;47.712;9.082;2023-03-22T03:28:34;96848.63;;;6.50;95.43
6668;BME280;3370;47.712;9.082;2023-03-22T03:31:57;96853.22;;;6.40;96.37
6668;BME280;3370;47.712;9.082;2023-03-22T03:38:35;96855.41;;;6.51;96.47
6668;BME280;3370;47.712;9.082;2023-03-22T03:41:15;96855.31;;;6.54;96.31
6668;BME280;3370;47.712;9.082;2023-03-22T03:44:03;96861.41;;;6.50;96.37
6668;BME280;3370;47.712;9.082;2023-03-22T03:46:50;96869.06;;;6.50;96.52
6668;BME280;3370;47.712;9.082;2023-03-22T03:49:37;96862.47;;;6.43;96.58
6668;BME280;3370;47.712;9.082;2023-03-22T03:52:24;96859.22;;;6.38;96.86
6668;BME280;3370;47.712;9.082;2023-03-22T03:55:11;96865.06;;;6.41;96.59
6668;BME280;3370;47.712;9.082;2023-03-22T03:57:57;96862.47;;;6.43;95.14
6668;BME280;3370;47.712;9.082;2023-03-22T04:00:44;96858.75;;;6.53;95.38
6668;BME280;3370;47.712;9.082;2023-03-22T04:03:31;96856.78;;;6.35;94.11
6668;BME280;3370;47.712;9.082;2023-03-22T04:06:17;96852.75;;;6.27;95.33
6668;BME280;3370;47.712;9.082;2023-03-22T04:09:03;96858.84;;;6.22;96.24
6668;BME280;3370;47.712;9.082;2023-03-22T04:11:50;96864.13;;;6.17;96.12
6668;BME280;3370;47.712;9.082;2023-03-22T04:14:36;96858.22;;;6.15;95.72
6668;BME280;3370;47.712;9.082;2023-03-22T04:17:23;96870.84;;;6.20;94.88
6668;BME280;3370;47.712;9.082;2023-03-22T04:20:11;96864.16;;;6.16;94.69
6668;BME280;3370;47.712;9.082;2023-03-22T04:22:58;96871.44;;;6.00;95.65
6668;BME280;3370;47.712;9.082;2023-03-22T04:25:45;96870.72;;;5.94;96.38
6668;BME280;3370;47.712;9.082;2023-03-22T04:28:34;96871.88;;;5.84;96.51
6668;BME280;3370;47.712;9.082;2023-03-22T04:31:21;96871.66;;;5.92;96.82
6668;BME280;3370;47.712;9.082;2023-03-22T04:34:07;96866.47;;;5.95;96.40
6668;BME280;3370;47.712;9.082;2023-03-22T04:36:53;96875.81;;;5.94;95.49
6668;BME280;3370;47.712;9.082;2023-03-22T04:39:39;96870.19;;;5.83;95.99
6668;BME280;3370;47.712;9.082;2023-03-22T04:42:25;96860.13;;;5.79;95.90
6668;BME280;3370;47.712;9.082;2023-03-22T04:45:13;96870.22;;;5.82;96.49
6668;BME280;3370;47.712;9.082;2023-03-22T04:47:59;96863.00;;;5.68;96.64
6668;BME280;3370;47.712;9.082;2023-03-22T04:50:45;96865.66;;;5.63;98.45
6668;BME280;3370;47.712;9.082;2023-03-22T04:53:31;96863.91;;;5.65;98.70
6668;BME280;3370;47.712;9.082;2023-03-22T04:56:17;96866.34;;;5.70;98.80
6668;BME280;3370;47.712;9.082;2023-03-22T04:59:04;96869.03;;;5.64;98.82
6668;BME280;3370;47.712;9.082;2023-03-22T05:01:50;96871.34;;;5.73;98.07
6668;BME280;3370;47.712;9.082;2023-03-22T05:04:36;96869.94;;;5.63;96.71
6668;BME280;3370;47.712;9.082;2023-03-22T05:07:22;96869.78;;;5.67;96.18
6668;BME280;3370;47.712;9.082;2023-03-22T05:10:09;96868.41;;;5.57;96.84
6668;BME280;3370;47.712;9.082;2023-03-22T05:12:55;96868.25;;;5.62;97.67
6668;BME280;3370;47.712;9.082;2023-03-22T05:15:41;96876.69;;;5.64;97.66
6668;BME280;3370;47.712;9.082;2023-03-22T05:18:27;96874.22;;;5.62;97.70
6668;BME280;3370;47.712;9.082;2023-03-22T05:21:17;96869.94;;;5.63;97.70
6668;BME280;3370;47.712;9.082;2023-03-22T05:24:07;96868.34;;;5.59;97.48
6668;BME280;3370;47.712;9.082;2023-03-22T05:26:53;96867.59;;;5.55;97.65
6668;BME280;3370;47.712;9.082;2023-03-22T05:29:39;96872.56;;;5.60;97.40
6668;BME280;3370;47.712;9.082;2023-03-22T05:32:29;96874.97;;;5.66;96.38
6668;BME280;3370;47.712;9.082;2023-03-22T05:35:15;96873.19;;;5.68;96.67
6668;BME280;3370;47.712;9.082;2023-03-22T05:38:02;96871.41;;;5.71;96.52
6668;BME280;3370;47.712;9.082;2023-03-22T05:40:48;96874.69;;;5.75;96.31
6668;BME280;3370;47.712;9.082;2023-03-22T05:43:35;96871.50;;;5.67;96.76
6668;BME280;3370;47.712;9.082;2023-03-22T05:46:21;96872.28;;;5.69;96.79
6668;BME280;3370;47.712;9.082;2023-03-22T05:49:07;96874.59;;;5.78;96.34
6668;BME280;3370;47.712;9.082;2023-03-22T05:51:53;96876.66;;;5.95;93.19
6668;BME280;3370;47.712;9.082;2023-03-22T05:54:40;96881.56;;;5.73;93.41
6668;BME280;3370;47.712;9.082;2023-03-22T05:57:26;96881.63;;;5.70;95.51
6668;BME280;3370;47.712;9.082;2023-03-22T06:00:15;96881.59;;;5.71;96.80
6668;BME280;3370;47.712;9.082;2023-03-22T06:03:01;96886.66;;;5.73;97.04
6668;BME280;3370;47.712;9.082;2023-03-22T06:05:50;96883.94;;;5.79;97.37
6668;BME280;3370;47.712;9.082;2023-03-22T06:08:37;96884.00;;;5.76;97.42
6668;BME280;3370;47.712;9.082;2023-03-22T06:11:24;96884.00;;;5.76;97.37
6668;BME280;3370;47.712;9.082;2023-03-22T06:14:10;96888.16;;;5.80;97.76
6668;BME280;3370;47.712;9.082;2023-03-22T06:16:56;96888.09;;;5.82;97.94
6668;BME280;3370;47.712;9.082;2023-03-22T06:19:42;96883.69;;;5.87;98.10
6668;BME280;3370;47.712;9.082;2023-03-22T06:22:28;96883.56;;;5.91;98.19
6668;BME280;3370;47.712;9.082;2023-03-22T06:25:16;96880.06;;;5.95;98.28
6668;BME280;3370;47.712;9.082;2023-03-22T06:28:02;96882.44;;;6.02;98.00
6668;BME280;3370;47.712;9.082;2023-03-22T06:30:48;96877.16;;;6.08;98.20
6668;BME280;3370;47.712;9.082;2023-03-22T06:33:35;96876.81;;;6.20;98.24
6668;BME280;3370;47.712;9.082;2023-03-22T06:36:21;96880.16;;;6.22;98.92
6668;BME280;3370;47.712;9.082;2023-03-22T06:39:08;96882.53;;;6.27;99.41
6668;BME280;3370;47.712;9.082;2023-03-22T06:41:54;96887.56;;;6.30;99.49
6668;BME280;3370;47.712;9.082;2023-03-22T06:44:40;96886.63;;;6.32;100.00
6668;BME280;3370;47.712;9.082;2023-03-22T06:47:29;96888.25;;;6.35;100.00
6668;BME280;3370;47.712;9.082;2023-03-22T06:50:15;96888.22;;;6.37;100.00
6668;BME280;3370;47.712;9.082;2023-03-22T06:53:02;96889.75;;;6.42;100.00
6668;BME280;3370;47.712;9.082;2023-03-22T06:55:48;96891.19;;;6.51;100.00
6668;BME280;3370;47.712;9.082;2023-03-22T06:58:34;96892.66;;;6.58;100.00
6668;BME280;3370;47.712;9.082;2023-03-22T07:01:20;96896.41;;;6.75;100.00
6668;BME280;3370;47.712;9.082;2023-03-22T07:04:06;96892.50;;;6.89;100.00
6668;BME280;3370;47.712;9.082;2023-03-22T07:06:53;96892.94;;;7.02;100.00
6668;BME280;3370;47.712;9.082;2023-03-22T07:09:39;96890.50;;;6.98;100.00
6668;BME280;3370;47.712;9.082;2023-03-22T07:12:25;96894.88;;;6.94;100.00
6668;BME280;3370;47.712;9.082;2023-03-22T07:15:11;96886.13;;;7.01;100.00
6668;BME280;3370;47.712;9.082;2023-03-22T07:17:59;96906.72;;;6.98;100.00
6668;BME280;3370;47.712;9.082;2023-03-22T07:20:45;96894.34;;;7.11;100.00
6668;BME280;3370;47.712;9.082;2023-03-22T07:23:32;96898.38;;;7.18;100.00
6668;BME280;3370;47.712;9.082;2023-03-22T07:26:18;96892.31;;;7.21;100.00
6668;BME280;3370;47.712;9.082;2023-03-22T07:29:04;96893.03;;;7.24;100.00
6668;BME280;3370;47.712;9.082;2023-03-22T07:31:50;96892.81;;;7.30;100.00
6668;BME280;3370;47.712;9.082;2023-03-22T07:34:36;96894.94;;;7.43;100.00
6668;BME280;3370;47.712;9.082;2023-03-22T07:37:22;96882.78;;;7.49;100.00
6668;BME280;3370;47.712;9.082;2023-03-22T07:40:09;96884.06;;;7.61;100.00
6668;BME280;3370;47.712;9.082;2023-03-22T07:42:55;96885.94;;;7.81;100.00
6668;BME280;3370;47.712;9.082;2023-03-22T07:45:43;96874.69;;;7.85;100.00
6668;BME280;3370;47.712;9.082;2023-03-22T07:48:29;96880.38;;;7.92;100.00
6668;BME280;3370;47.712;9.082;2023-03-22T07:51:16;96875.00;;;8.00;100.00
6668;BME280;3370;47.712;9.082;2023-03-22T07:54:03;96878.16;;;8.06;99.08
6668;BME280;3370;47.712;9.082;2023-03-22T07:56:49;96876.03;;;8.18;96.12
6668;BME280;3370;47.712;9.082;2023-03-22T07:59:35;96879.00;;;8.29;91.23
6668;BME280;3370;47.712;9.082;2023-03-22T08:02:21;96874.28;;;8.42;89.96
6668;BME280;3370;47.712;9.082;2023-03-22T08:05:07;96871.09;;;8.79;nan
6668;BME280;3370;47.712;9.082;2023-03-22T08:07:54;96871.47;;;8.91;87.50
6668;BME280;3370;47.712;9.082;2023-03-22T08:10:41;96874.34;;;9.24;90.84
6668;BME280;3370;47.712;9.082;2023-03-22T08:13:27;96877.50;;;9.31;87.52
6668;BME280;3370;47.712;9.082;2023-03-22T08:16:13;96868.28;;;9.46;86.78
6668;BME280;3370;47.712;9.082;2023-03-22T08:19:00;96869.63;;;9.54;86.64
6668;BME280;3370;47.712;9.082;2023-03-22T08:21:46;96866.38;;;9.70;81.53
6668;BME280;3370;47.712;9.082;2023-03-22T08:24:32;96870.50;;;9.74;79.88
6668;BME280;3370;47.712;9.082;2023-03-22T08:27:18;96872.22;;;9.92;77.91
6668;BME280;3370;47.712;9.082;2023-03-22T08:30:05;96864.28;;;10.35;74.36
6668;BME280;3370;47.712;9.082;2023-03-22T08:32:51;96862.66;;;10.34;75.93
6668;BME280;3370;47.712;9.082;2023-03-22T08:35:38;96864.47;;;10.49;79.29
6668;BME280;3370;47.712;9.082;2023-03-22T08:38:25;96854.81;;;10.54;76.49
6668;BME280;3370;47.712;9.082;2023-03-22T08:41:11;96866.19;;;10.68;73.78
6668;BME280;3370;47.712;9.082;2023-03-22T08:43:57;96865.34;;;10.67;72.73
6668;BME280;3370;47.712;9.082;2023-03-22T08:46:43;96862.19;;;10.80;70.96
6668;BME280;3370;47.712;9.082;2023-03-22T08:49:30;96870.25;;;10.89;70.38
6668;BME280;3370;47.712;9.082;2023-03-22T08:52:16;96880.94;;;10.99;71.60
6668;BME280;3370;47.712;9.082;2023-03-22T08:55:04;96882.22;;;11.25;69.64
6668;BME280;3370;47.712;9.082;2023-03-22T08:57:50;96876.69;;;11.33;69.78
6668;BME280;3370;47.712;9.082;2023-03-22T09:00:36;96884.78;;;11.43;69.81
6668;BME280;3370;47.712;9.082;2023-03-22T09:03:23;96875.88;;;11.66;67.29
6668;BME280;3370;47.712;9.082;2023-03-22T09:06:10;96874.88;;;11.68;69.00
6668;BME280;3370;47.712;9.082;2023-03-22T09:08:56;96872.53;;;11.64;68.08
6668;BME280;3370;47.712;9.082;2023-03-22T09:11:42;96866.91;;;11.89;67.93
6668;BME280;3370;47.712;9.082;2023-03-22T09:14:29;96870.19;;;12.08;66.46
6668;BME280;3370;47.712;9.082;2023-03-22T09:17:15;96872.34;;;12.16;67.21
6668;BME280;3370;47.712;9.082;2023-03-22T09:20:04;96870.44;;;12.20;65.36
6668;BME280;3370;47.712;9.082;2023-03-22T09:22:51;96869.63;;;12.19;65.67
6668;BME280;3370;47.712;9.082;2023-03-22T09:25:37;96871.81;;;12.11;65.80
6668;BME280;3370;47.712;9.082;2023-03-22T09:28:23;96872.28;;;12.18;64.80
6668;BME280;3370;47.712;9.082;2023-03-22T09:31:10;96879.25;;;12.16;64.38
6668;BME280;3370;47.712;9.082;2023-03-22T09:33:56;96867.97;;;12.18;65.25
6668;BME280;3370;47.712;9.082;2023-03-22T09:36:42;96861.66;;;12.24;64.68
6668;BME280;3370;47.712;9.082;2023-03-22T09:39:28;96860.22;;;12.34;65.75
6668;BME280;3370;47.712;9.082;2023-03-22T09:45:18;96857.03;;;12.91;64.43
6668;BME280;3370;47.712;9.082;2023-03-22T09:48:21;96845.53;;;12.97;65.07
6668;BME280;3370;47.712;9.082;2023-03-22T09:51:28;96845.16;;;13.03;66.41
6668;BME280;3370;47.712;9.082;2023-03-22T09:54:35;96848.41;;;13.21;64.25
6668;BME280;3370;47.712;9.082;2023-03-22T09:57:34;96838.09;;;13.21;63.39
6668;BME280;3370;47.712;9.082;2023-03-22T10:00:47;96845.09;;;13.19;61.88
6668;BME280;3370;47.712;9.082;2023-03-22T10:06:49;96830.63;;;13.16;61.77
6668;BME280;3370;47.712;9.082;2023-03-22T10:10:21;96833.22;;;13.16;62.47
6668;BME280;3370;47.712;9.082;2023-03-22T10:13:34;96822.28;;;13.41;62.99
6668;BME280;3370;47.712;9.082;2023-03-22T10:16:31;96820.88;;;13.36;60.59
6668;BME280;3370;47.712;9.082;2023-03-22T10:19:42;96820.88;;;13.65;59.49
6668;BME280;3370;47.712;9.082;2023-03-22T10:22:35;96813.66;;;13.84;59.26
6668;BME280;3370;47.712;9.082;2023-03-22T10:25:36;96814.03;;;13.92;57.92
6668;BME280;3370;47.712;9.082;2023-03-22T10:32:16;96805.16;;;14.24;58.35
6668;BME280;3370;47.712;9.082;2023-03-22T10:35:03;96804.66;;;14.31;55.89
6668;BME280;3370;47.712;9.082;2023-03-22T10:37:51;96800.34;;;14.45;60.02
6668;BME280;3370;47.712;9.082;2023-03-22T10:40:38;96786.09;;;14.52;56.82
6668;BME280;3370;47.712;9.082;2023-03-22T10:43:34;96787.19;;;14.62;53.61
6668;BME280;3370;47.712;9.082;2023-03-22T10:46:25;96781.66;;;14.81;54.04
6668;BME280;3370;47.712;9.082;2023-03-22T10:49:26;96781.22;;;15.00;51.91
6668;BME280;3370;47.712;9.082;2023-03-22T10:52:48;96774.81;;;15.19;51.36
6668;BME280;3370;47.712;9.082;2023-03-22T10:55:42;96777.47;;;15.30;52.05
6668;BME280;3370;47.712;9.082;2023-03-22T10:58:33;96770.94;;;15.63;51.64
6668;BME280;3370;47.712;9.082;2023-03-22T11:01:34;96774.03;;;16.29;51.57
6668;BME280;3370;47.712;9.082;2023-03-22T11:04:22;96766.41;;;16.39;49.30
6668;BME280;3370;47.712;9.082;2023-03-22T11:07:25;96750.91;;;16.61;47.56
6668;BME280;3370;47.712;9.082;2023-03-22T11:15:58;96752.16;;;17.81;45.26
6668;BME280;3370;47.712;9.082;2023-03-22T11:18:47;96752.50;;;17.99;45.58
6668;BME280;3370;47.712;9.082;2023-03-22T11:21:33;96751.63;;;18.22;44.10
6668;BME280;3370;47.712;9.082;2023-03-22T11:24:19;96745.47;;;18.23;44.25
6668;BME280;3370;47.712;9.082;2023-03-22T11:27:24;96728.97;;;18.54;42.79
6668;BME280;3370;47.712;9.082;2023-03-22T11:30:22;96732.53;;;18.32;42.98
6668;BME280;3370;47.712;9.082;2023-03-22T11:33:20;96736.94;;;17.66;44.60
6668;BME280;3370;47.712;9.082;2023-03-22T11:36:17;96735.50;;;17.73;46.53
6668;BME280;3370;47.712;9.082;2023-03-22T11:39:06;96733.78;;;17.39;46.23
6668;BME280;3370;47.712;9.082;2023-03-22T11:41:56;96720.44;;;18.10;44.29
6668;BME280;3370;47.712;9.082;2023-03-22T11:44:43;96719.03;;;18.38;42.62
6668;BME280;3370;47.712;9.082;2023-03-22T11:47:35;96713.63;;;18.51;44.14
6668;BME280;3370;47.712;9.082;2023-03-22T11:50:33;96707.91;;;18.57;43.20
6668;BME280;3370;47.712;9.082;2023-03-22T11:53:23;96706.91;;;18.70;42.06
6668;BME280;3370;47.712;9.082;2023-03-22T11:56:15;96713.75;;;19.13;41.06
6668;BME280;3370;47.712;9.082;2023-03-22T11:59:15;96708.88;;;18.99;40.58
6668;BME280;3370;47.712;9.082;2023-03-22T12:02:30;96709.53;;;18.80;38.88
6668;BME280;3370;47.712;9.082;2023-03-22T12:05:27;96702.34;;;19.14;40.50
6668;BME280;3370;47.712;9.082;2023-03-22T12:08:26;96693.50;;;20.64;36.75
6668;BME280;3370;47.712;9.082;2023-03-22T12:11:26;96692.00;;;20.23;34.82
6668;BME280;3370;47.712;9.082;2023-03-22T12:14:27;96692.03;;;20.33;36.64
6668;BME280;3370;47.712;9.082;2023-03-22T12:17:32;96693.69;;;19.54;36.78
6668;BME280;3370;47.712;9.082;2023-03-22T12:20:40;96672.81;;;20.14;36.16
6668;BME280;3370;47.712;9.082;2023-03-22T12:23:32;96669.84;;;20.66;36.78
6668;BME280;3370;47.712;9.082;2023-03-22T12:26:26;96670.53;;;20.68;36.93
6668;BME280;3370;47.712;9.082;2023-03-22T12:29:18;96662.19;;;19.77;36.51
6668;BME280;3370;47.712;9.082;2023-03-22T12:32:27;96661.50;;;20.14;35.71
6668;BME280;3370;47.712;9.082;2023-03-22T12:35:28;96659.84;;;20.32;34.40
6668;BME280;3370;47.712;9.082;2023-03-22T12:38:57;96655.00;;;20.66;33.60
6668;BME280;3370;47.712;9.082;2023-03-22T12:41:48;96653.47;;;21.11;33.82
6668;BME280;3370;47.712;9.082;2023-03-22T12:44:39;96643.66;;;22.40;31.12
6668;BME280;3370;47.712;9.082;2023-03-22T12:47:38;96643.44;;;20.59;32.98
6668;BME280;3370;47.712;9.082;2023-03-22T12:50:41;96646.78;;;20.32;36.25
6668;BME280;3370;47.712;9.082;2023-03-22T12:53:34;96638.75;;;19.96;34.51
6668;BME280;3370;47.712;9.082;2023-03-22T12:56:40;96636.66;;;19.90;33.76
6668;BME280;3370;47.712;9.082;2023-03-22T12:59:29;96634.06;;;19.80;34.52
6668;BME280;3370;47.712;9.082;2023-03-22T13:02:31;96630.38;;;19.23;35.36
6668;BME280;3370;47.712;9.082;2023-03-22T13:05:19;96636.97;;;20.73;36.68
6668;BME280;3370;47.712;9.082;2023-03-22T13:08:05;96630.13;;;20.62;32.52
6668;BME280;3370;47.712;9.082;2023-03-22T13:11:00;96620.56;;;20.24;33.49
6668;BME280;3370;47.712;9.082;2023-03-22T13:13:48;96624.31;;;20.78;33.90
6668;BME280;3370;47.712;9.082;2023-03-22T13:16:55;96627.31;;;21.67;35.25
6668;BME280;3370;47.712;9.082;2023-03-22T13:25:38;96616.09;;;21.74;32.23
6668;BME280;3370;47.712;9.082;2023-03-22T13:28:59;96608.25;;;21.92;30.59
6668;BME280;3370;47.712;9.082;2023-03-22T13:31:58;96607.19;;;21.49;31.83
6668;BME280;3370;47.712;9.082;2023-03-22T13:34:48;96614.34;;;20.92;30.88
6668;BME280;3370;47.712;9.082;2023-03-22T13:37:47;96608.75;;;21.14;31.25
6668;BME280;3370;47.712;9.082;2023-03-22T13:40:45;96604.34;;;21.60;30.97
6668;BME280;3370;47.712;9.082;2023-03-22T13:43:51;96602.81;;;20.84;30.92
6668;BME280;3370;47.712;9.082;2023-03-22T13:49:48;96598.38;;;21.22;29.97
6668;BME280;3370;47.712;9.082;2023-03-22T13:53:12;96596.25;;;20.80;31.35
6668;BME280;3370;47.712;9.082;2023-03-22T13:56:04;96590.66;;;21.03;31.77
6668;BME280;3370;47.712;9.082;2023-03-22T13:58:52;96589.44;;;20.60;32.18
6668;BME280;3370;47.712;9.082;2023-03-22T14:01:53;96589.72;;;20.57;33.55
6668;BME280;3370;47.712;9.082;2023-03-22T14:04:53;96586.19;;;20.38;32.10
6668;BME280;3370;47.712;9.082;2023-03-22T14:07:49;96584.38;;;20.96;31.57
6668;BME280;3370;47.712;9.082;2023-03-22T14:11:06;96576.53;;;21.14;30.55
6668;BME280;3370;47.712;9.082;2023-03-22T14:14:08;96569.50;;;21.42;29.41
6668;BME280;3370;47.712;9.082;2023-03-22T14:17:15;96569.91;;;21.01;31.89
6668;BME280;3370;47.712;9.082;2023-03-22T14:20:05;96569.31;;;20.80;32.07
6668;BME280;3370;47.712;9.082;2023-03-22T14:23:03;96568.44;;;20.89;30.01
6668;BME280;3370;47.712;9.082;2023-03-22T14:25:56;96562.69;;;20.28;32.01
6668;BME280;3370;47.712;9.082;2023-03-22T14:28:45;96560.03;;;21.13;32.87
6668;BME280;3370;47.712;9.082;2023-03-22T14:31:32;96550.56;;;20.84;32.92
6668;BME280;3370;47.712;9.082;2023-03-22T14:34:18;96551.50;;;20.93;33.33
6668;BME280;3370;47.712;9.082;2023-03-22T14:37:05;96549.72;;;21.12;31.38
6668;BME280;3370;47.712;9.082;2023-03-22T14:39:57;96554.69;;;20.87;31.17
6668;BME280;3370;47.712;9.082;2023-03-22T14:42:44;96544.63;;;20.64;33.05
6668;BME280;3370;47.712;9.082;2023-03-22T14:45:32;96543.97;;;21.08;32.12
6668;BME280;3370;47.712;9.082;2023-03-22T14:48:22;96539.34;;;21.02;32.77
6668;BME280;3370;47.712;9.082;2023-03-22T14:51:20;96534.66;;;21.23;33.30
6668;BME280;3370;47.712;9.082;2023-03-22T14:54:16;96537.09;;;20.89;32.34
6668;BME280;3370;47.712;9.082;2023-03-22T14:57:04;96538.84;;;20.14;32.88
6668;BME280;3370;47.712;9.082;2023-03-22T14:59:50;96536.25;;;19.94;31.94
6668;BME280;3370;47.712;9.082;2023-03-22T15:02:40;96538.84;;;20.14;31.60
6668;BME280;3370;47.712;9.082;2023-03-22T15:05:34;96533.44;;;20.25;32.25
6668;BME280;3370;47.712;9.082;2023-03-22T15:08:27;96529.25;;;20.52;32.02
6668;BME280;3370;47.712;9.082;2023-03-22T15:11:16;96527.84;;;20.20;31.80
6668;BME280;3370;47.712;9.082;2023-03-22T15:14:03;96523.59;;;20.19;33.44
6668;BME280;3370;47.712;9.082;2023-03-22T15:16:49;96529.06;;;20.63;33.80
6668;BME280;3370;47.712;9.082;2023-03-22T15:19:40;96530.78;;;20.82;32.37
6668;BME280;3370;47.712;9.082;2023-03-22T15:22:28;96516.75;;;20.83;31.59
6668;BME280;3370;47.712;9.082;2023-03-22T15:25:14;96511.34;;;20.29;31.59
6668;BME280;3370;47.712;9.082;2023-03-22T15:28:04;96514.47;;;19.76;33.82
6668;BME280;3370;47.712;9.082;2023-03-22T15:30:53;96510.34;;;19.83;32.49
6668;BME280;3370;47.712;9.082;2023-03-22T15:33:39;96511.13;;;20.03;32.16
6668;BME280;3370;47.712;9.082;2023-03-22T15:36:32;96513.50;;;19.47;32.48
6668;BME280;3370;47.712;9.082;2023-03-22T15:39:40;96512.69;;;19.27;33.61
6668;BME280;3370;47.712;9.082;2023-03-22T15:42:38;96509.13;;;19.48;33.74
6668;BME280;3370;47.712;9.082;2023-03-22T15:45:24;96500.88;;;19.82;33.70
6668;BME280;3370;47.712;9.082;2023-03-22T15:48:18;96507.63;;;19.75;33.16
6668;BME280;3370;47.712;9.082;2023-03-22T15:51:05;96506.34;;;19.59;32.12
6668;BME280;3370;47.712;9.082;2023-03-22T15:53:51;96500.03;;;19.52;33.58
6668;BME280;3370;47.712;9.082;2023-03-22T15:56:47;96506.03;;;20.01;36.12
6668;BME280;3370;47.712;9.082;2023-03-22T15:59:53;96502.66;;;20.28;33.35
6668;BME280;3370;47.712;9.082;2023-03-22T16:05:45;96502.44;;;20.12;32.70
6668;BME280;3370;47.712;9.082;2023-03-22T16:08:32;96495.09;;;19.88;31.85
6668;BME280;3370;47.712;9.082;2023-03-22T16:11:23;96489.63;;;19.42;33.09
6668;BME280;3370;47.712;9.082;2023-03-22T16:14:14;96499.38;;;19.50;33.83
6668;BME280;3370;47.712;9.082;2023-03-22T16:17:00;96491.28;;;19.53;33.67
6668;BME280;3370;47.712;9.082;2023-03-22T16:19:47;96491.53;;;19.50;33.48
6668;BME280;3370;47.712;9.082;2023-03-22T16:22:33;96494.03;;;19.42;33.30
6668;BME280;3370;47.712;9.082;2023-03-22T16:25:22;96497.56;;;19.50;36.58
6668;BME280;3370;47.712;9.082;2023-03-22T16:28:09;96499.06;;;19.14;36.61
6668;BME280;3370;47.712;9.082;2023-03-22T16:30:55;96500.44;;;18.99;36.04
6668;BME280;3370;47.712;9.082;2023-03-22T16:33:44;96500.16;;;19.02;35.19
6668;BME280;3370;47.712;9.082;2023-03-22T16:36:31;96502.38;;;19.06;35.12
6668;BME280;3370;47.712;9.082;2023-03-22T16:39:19;96494.53;;;18.96;34.06
6668;BME280;3370;47.712;9.082;2023-03-22T16:42:14;96498.47;;;18.81;34.98
6668;BME280;3370;47.712;9.082;2023-03-22T16:45:01;96497.25;;;18.85;34.35
6668;BME280;3370;47.712;9.082;2023-03-22T16:47:49;96492.31;;;18.82;33.86